Lake Sumner, New Mexico
Current Conditions -  °F | °C
As of 10:56 AM on Saturday 25 Oct 2014 (Local Time) from K4MR Reporting Station
Clear Clear  
Wind Chill: 24°   Ceiling: Unl
Heat Index: 24°   Visibility: 10mi
Dew Point:   Wind: 3mph
Humidity: 35%   Direction: 120°ESE
Pressure: 30.24"   Gusts: NA
Location:  34.3001°N, 104.256°W
Report Text: K4MR 251656Z AUTO 12003KT 10SM CLR 24/08 A3024 RMK AO2 SLP187 T02380075
Loading
Personal Weather Stations






























Interactive Weather Map
Tropical Storm Tracking
New forecast layout! Learn more

10-Day Weather Forecast

Advertisements
Track Severe Weather on mobile